sensor_id;sensor_type;location;lat;lon;timestamp;P1;durP1;ratioP1;P2;durP2;ratioP2
10469;SDS011;5282;47.052;15.458;2023-03-24T00:00:02;9.67;;;8.97;;
10469;SDS011;5282;47.052;15.458;2023-03-24T00:02:37;9.03;;;8.43;;
10469;SDS011;5282;47.052;15.458;2023-03-24T00:05:07;9.83;;;9.00;;
10469;SDS011;5282;47.052;15.458;2023-03-24T00:07:35;9.27;;;8.53;;
10469;SDS011;5282;47.052;15.458;2023-03-24T00:10:04;9.80;;;9.10;;
10469;SDS011;5282;47.052;15.458;2023-03-24T00:12:34;8.90;;;8.20;;
10469;SDS011;5282;47.052;15.458;2023-03-24T00:15:03;9.27;;;8.67;;
10469;SDS011;5282;47.052;15.458;2023-03-24T00:17:31;9.83;;;9.13;;
10469;SDS011;5282;47.052;15.458;2023-03-24T00:20:01;9.93;;;9.00;;
10469;SDS011;5282;47.052;15.458;2023-03-24T00:22:36;8.87;;;8.27;;
10469;SDS011;5282;47.052;15.458;2023-03-24T00:25:07;9.03;;;8.40;;
10469;SDS011;5282;47.052;15.458;2023-03-24T00:27:35;9.10;;;8.40;;
10469;SDS011;5282;47.052;15.458;2023-03-24T00:30:04;9.53;;;8.77;;
10469;SDS011;5282;47.052;15.458;2023-03-24T00:32:32;9.70;;;8.80;;
10469;SDS011;5282;47.052;15.458;2023-03-24T00:35:02;9.73;;;8.93;;
10469;SDS011;5282;47.052;15.458;2023-03-24T00:37:32;9.40;;;8.60;;
10469;SDS011;5282;47.052;15.458;2023-03-24T00:40:02;9.37;;;8.67;;
10469;SDS011;5282;47.052;15.458;2023-03-24T00:42:31;10.03;;;9.13;;
10469;SDS011;5282;47.052;15.458;2023-03-24T00:44:58;9.23;;;8.43;;
10469;SDS011;5282;47.052;15.458;2023-03-24T00:47:25;9.07;;;8.37;;
10469;SDS011;5282;47.052;15.458;2023-03-24T00:49:52;10.47;;;9.63;;
10469;SDS011;5282;47.052;15.458;2023-03-24T00:52:23;10.10;;;9.30;;
10469;SDS011;5282;47.052;15.458;2023-03-24T00:54:51;11.53;;;10.53;;
10469;SDS011;5282;47.052;15.458;2023-03-24T00:57:22;10.63;;;9.87;;
10469;SDS011;5282;47.052;15.458;2023-03-24T00:59:51;10.57;;;9.67;;
10469;SDS011;5282;47.052;15.458;2023-03-24T01:02:21;11.03;;;9.87;;
10469;SDS011;5282;47.052;15.458;2023-03-24T01:04:51;11.20;;;10.40;;
10469;SDS011;5282;47.052;15.458;2023-03-24T01:07:18;11.90;;;10.83;;
10469;SDS011;5282;47.052;15.458;2023-03-24T01:09:47;12.00;;;11.10;;
10469;SDS011;5282;47.052;15.458;2023-03-24T01:12:22;11.60;;;10.60;;
10469;SDS011;5282;47.052;15.458;2023-03-24T01:14:49;12.07;;;11.07;;
10469;SDS011;5282;47.052;15.458;2023-03-24T01:17:16;11.17;;;10.17;;
10469;SDS011;5282;47.052;15.458;2023-03-24T01:19:47;12.07;;;10.97;;
10469;SDS011;5282;47.052;15.458;2023-03-24T01:22:14;11.93;;;10.83;;
10469;SDS011;5282;47.052;15.458;2023-03-24T01:24:42;11.77;;;10.57;;
10469;SDS011;5282;47.052;15.458;2023-03-24T01:27:10;13.13;;;10.80;;
10469;SDS011;5282;47.052;15.458;2023-03-24T01:29:37;12.03;;;11.03;;
10469;SDS011;5282;47.052;15.458;2023-03-24T01:32:05;12.20;;;11.20;;
10469;SDS011;5282;47.052;15.458;2023-03-24T01:34:31;12.43;;;11.07;;
10469;SDS011;5282;47.052;15.458;2023-03-24T01:36:59;11.83;;;10.83;;
10469;SDS011;5282;47.052;15.458;2023-03-24T01:39:26;12.23;;;11.33;;
10469;SDS011;5282;47.052;15.458;2023-03-24T01:41:54;11.60;;;10.67;;
10469;SDS011;5282;47.052;15.458;2023-03-24T01:44:28;11.97;;;10.77;;
10469;SDS011;5282;47.052;15.458;2023-03-24T01:46:57;12.60;;;11.30;;
10469;SDS011;5282;47.052;15.458;2023-03-24T01:49:28;11.93;;;10.87;;
10469;SDS011;5282;47.052;15.458;2023-03-24T01:51:59;13.13;;;11.83;;
10469;SDS011;5282;47.052;15.458;2023-03-24T01:54:29;11.60;;;10.67;;
10469;SDS011;5282;47.052;15.458;2023-03-24T01:57:01;13.27;;;12.03;;
10469;SDS011;5282;47.052;15.458;2023-03-24T01:59:33;13.07;;;11.87;;
10469;SDS011;5282;47.052;15.458;2023-03-24T02:02:03;12.63;;;11.43;;
10469;SDS011;5282;47.052;15.458;2023-03-24T02:04:35;13.00;;;11.53;;
10469;SDS011;5282;47.052;15.458;2023-03-24T02:07:07;12.83;;;11.63;;
10469;SDS011;5282;47.052;15.458;2023-03-24T02:09:41;11.57;;;10.77;;
10469;SDS011;5282;47.052;15.458;2023-03-24T02:12:09;12.90;;;11.73;;
10469;SDS011;5282;47.052;15.458;2023-03-24T02:14:37;13.40;;;12.30;;
10469;SDS011;5282;47.052;15.458;2023-03-24T02:17:11;14.10;;;12.60;;
10469;SDS011;5282;47.052;15.458;2023-03-24T02:20:03;12.83;;;11.83;;
10469;SDS011;5282;47.052;15.458;2023-03-24T02:26:04;13.20;;;11.87;;
10469;SDS011;5282;47.052;15.458;2023-03-24T02:28:48;14.20;;;12.90;;
10469;SDS011;5282;47.052;15.458;2023-03-24T02:31:40;13.00;;;11.93;;
10469;SDS011;5282;47.052;15.458;2023-03-24T02:34:34;12.50;;;11.30;;
10469;SDS011;5282;47.052;15.458;2023-03-24T02:40:44;13.23;;;11.93;;
10469;SDS011;5282;47.052;15.458;2023-03-24T02:43:18;15.57;;;11.80;;
10469;SDS011;5282;47.052;15.458;2023-03-24T02:45:59;13.00;;;11.73;;
10469;SDS011;5282;47.052;15.458;2023-03-24T02:48:40;12.73;;;11.43;;
10469;SDS011;5282;47.052;15.458;2023-03-24T02:51:19;10.90;;;10.10;;
10469;SDS011;5282;47.052;15.458;2023-03-24T02:53:53;11.87;;;10.77;;
10469;SDS011;5282;47.052;15.458;2023-03-24T02:56:29;12.13;;;11.13;;
10469;SDS011;5282;47.052;15.458;2023-03-24T02:59:03;10.57;;;9.77;;
10469;SDS011;5282;47.052;15.458;2023-03-24T03:01:33;10.97;;;10.00;;
10469;SDS011;5282;47.052;15.458;2023-03-24T03:04:07;11.50;;;10.70;;
10469;SDS011;5282;47.052;15.458;2023-03-24T03:06:38;11.00;;;10.27;;
10469;SDS011;5282;47.052;15.458;2023-03-24T03:09:09;11.93;;;10.57;;
10469;SDS011;5282;47.052;15.458;2023-03-24T03:11:40;10.83;;;10.13;;
10469;SDS011;5282;47.052;15.458;2023-03-24T03:14:12;11.53;;;10.63;;
10469;SDS011;5282;47.052;15.458;2023-03-24T03:16:43;11.30;;;10.30;;
10469;SDS011;5282;47.052;15.458;2023-03-24T03:19:14;11.37;;;10.47;;
10469;SDS011;5282;47.052;15.458;2023-03-24T03:21:45;11.40;;;10.50;;
10469;SDS011;5282;47.052;15.458;2023-03-24T03:24:16;10.63;;;9.93;;
10469;SDS011;5282;47.052;15.458;2023-03-24T03:26:54;10.80;;;10.00;;
10469;SDS011;5282;47.052;15.458;2023-03-24T03:29:25;11.00;;;10.20;;
10469;SDS011;5282;47.052;15.458;2023-03-24T03:31:58;11.00;;;10.20;;
10469;SDS011;5282;47.052;15.458;2023-03-24T03:34:33;11.07;;;10.17;;
10469;SDS011;5282;47.052;15.458;2023-03-24T03:37:07;11.43;;;10.60;;
10469;SDS011;5282;47.052;15.458;2023-03-24T03:39:39;11.70;;;10.70;;
10469;SDS011;5282;47.052;15.458;2023-03-24T03:42:12;11.37;;;10.37;;
10469;SDS011;5282;47.052;15.458;2023-03-24T03:44:39;11.30;;;10.30;;
10469;SDS011;5282;47.052;15.458;2023-03-24T03:47:06;10.90;;;10.00;;
10469;SDS011;5282;47.052;15.458;2023-03-24T03:49:33;11.10;;;10.30;;
10469;SDS011;5282;47.052;15.458;2023-03-24T03:52:01;11.47;;;10.30;;
10469;SDS011;5282;47.052;15.458;2023-03-24T03:54:28;11.47;;;10.40;;
10469;SDS011;5282;47.052;15.458;2023-03-24T03:56:58;11.07;;;10.27;;
10469;SDS011;5282;47.052;15.458;2023-03-24T03:59:27;11.23;;;9.70;;
10469;SDS011;5282;47.052;15.458;2023-03-24T04:02:00;11.10;;;10.03;;
10469;SDS011;5282;47.052;15.458;2023-03-24T04:04:49;11.43;;;10.57;;
10469;SDS011;5282;47.052;15.458;2023-03-24T04:07:32;12.20;;;11.00;;
10469;SDS011;5282;47.052;15.458;2023-03-24T04:10:11;11.47;;;10.10;;
10469;SDS011;5282;47.052;15.458;2023-03-24T04:15:45;11.37;;;10.27;;
10469;SDS011;5282;47.052;15.458;2023-03-24T04:18:31;11.20;;;10.20;;
10469;SDS011;5282;47.052;15.458;2023-03-24T04:21:30;11.43;;;10.40;;
10469;SDS011;5282;47.052;15.458;2023-03-24T04:24:22;12.13;;;10.90;;
10469;SDS011;5282;47.052;15.458;2023-03-24T04:27:04;11.77;;;10.60;;
10469;SDS011;5282;47.052;15.458;2023-03-24T04:29:43;11.20;;;10.20;;
10469;SDS011;5282;47.052;15.458;2023-03-24T04:32:26;12.07;;;10.83;;
10469;SDS011;5282;47.052;15.458;2023-03-24T04:35:01;10.80;;;10.03;;
10469;SDS011;5282;47.052;15.458;2023-03-24T04:37:33;12.10;;;10.40;;
10469;SDS011;5282;47.052;15.458;2023-03-24T04:40:04;13.73;;;10.50;;
10469;SDS011;5282;47.052;15.458;2023-03-24T04:42:35;11.90;;;10.90;;
10469;SDS011;5282;47.052;15.458;2023-03-24T04:45:05;12.43;;;11.27;;
10469;SDS011;5282;47.052;15.458;2023-03-24T04:47:35;12.87;;;11.57;;
10469;SDS011;5282;47.052;15.458;2023-03-24T04:50:08;13.23;;;11.87;;
10469;SDS011;5282;47.052;15.458;2023-03-24T04:52:37;14.20;;;12.43;;
10469;SDS011;5282;47.052;15.458;2023-03-24T04:55:12;14.80;;;13.60;;
10469;SDS011;5282;47.052;15.458;2023-03-24T04:57:54;14.37;;;13.17;;
10469;SDS011;5282;47.052;15.458;2023-03-24T05:00:21;14.77;;;13.13;;
10469;SDS011;5282;47.052;15.458;2023-03-24T05:02:50;13.30;;;12.20;;
10469;SDS011;5282;47.052;15.458;2023-03-24T05:05:19;13.63;;;12.40;;
10469;SDS011;5282;47.052;15.458;2023-03-24T05:07:46;15.23;;;13.73;;
10469;SDS011;5282;47.052;15.458;2023-03-24T05:10:14;16.20;;;14.60;;
10469;SDS011;5282;47.052;15.458;2023-03-24T05:12:42;14.93;;;13.53;;
10469;SDS011;5282;47.052;15.458;2023-03-24T05:15:10;27.33;;;24.93;;
10469;SDS011;5282;47.052;15.458;2023-03-24T05:17:39;16.20;;;14.80;;
10469;SDS011;5282;47.052;15.458;2023-03-24T05:20:08;18.50;;;14.30;;
10469;SDS011;5282;47.052;15.458;2023-03-24T05:22:36;18.17;;;15.07;;
10469;SDS011;5282;47.052;15.458;2023-03-24T05:25:03;19.83;;;17.80;;
10469;SDS011;5282;47.052;15.458;2023-03-24T05:27:31;18.87;;;16.83;;
10469;SDS011;5282;47.052;15.458;2023-03-24T05:29:58;17.83;;;15.93;;
10469;SDS011;5282;47.052;15.458;2023-03-24T05:32:25;16.67;;;14.97;;
10469;SDS011;5282;47.052;15.458;2023-03-24T05:34:52;20.03;;;16.80;;
10469;SDS011;5282;47.052;15.458;2023-03-24T05:37:21;21.73;;;17.43;;
10469;SDS011;5282;47.052;15.458;2023-03-24T05:39:47;19.60;;;17.17;;
10469;SDS011;5282;47.052;15.458;2023-03-24T05:42:15;19.00;;;16.00;;
10469;SDS011;5282;47.052;15.458;2023-03-24T05:44:44;19.60;;;17.27;;
10469;SDS011;5282;47.052;15.458;2023-03-24T05:47:11;20.70;;;16.77;;
10469;SDS011;5282;47.052;15.458;2023-03-24T05:49:40;16.20;;;14.27;;
10469;SDS011;5282;47.052;15.458;2023-03-24T05:52:08;18.33;;;14.90;;
10469;SDS011;5282;47.052;15.458;2023-03-24T05:54:37;19.50;;;15.90;;
10469;SDS011;5282;47.052;15.458;2023-03-24T05:57:04;19.20;;;15.67;;
10469;SDS011;5282;47.052;15.458;2023-03-24T05:59:32;19.00;;;15.17;;
10469;SDS011;5282;47.052;15.458;2023-03-24T06:01:59;17.07;;;15.27;;
10469;SDS011;5282;47.052;15.458;2023-03-24T06:04:26;20.13;;;14.63;;
10469;SDS011;5282;47.052;15.458;2023-03-24T06:06:54;16.23;;;14.73;;
10469;SDS011;5282;47.052;15.458;2023-03-24T06:09:23;17.53;;;14.50;;
10469;SDS011;5282;47.052;15.458;2023-03-24T06:11:51;15.63;;;14.13;;
10469;SDS011;5282;47.052;15.458;2023-03-24T06:14:18;27.57;;;14.10;;
10469;SDS011;5282;47.052;15.458;2023-03-24T06:16:45;16.20;;;14.50;;
10469;SDS011;5282;47.052;15.458;2023-03-24T06:19:14;19.17;;;15.67;;
10469;SDS011;5282;47.052;15.458;2023-03-24T06:21:41;16.93;;;15.20;;
10469;SDS011;5282;47.052;15.458;2023-03-24T06:24:09;15.87;;;14.23;;
10469;SDS011;5282;47.052;15.458;2023-03-24T06:26:39;16.70;;;14.00;;
10469;SDS011;5282;47.052;15.458;2023-03-24T06:29:07;15.47;;;13.60;;
10469;SDS011;5282;47.052;15.458;2023-03-24T06:31:34;16.43;;;14.73;;
10469;SDS011;5282;47.052;15.458;2023-03-24T06:34:02;15.07;;;13.60;;
10469;SDS011;5282;47.052;15.458;2023-03-24T06:36:29;16.37;;;13.33;;
10469;SDS011;5282;47.052;15.458;2023-03-24T06:38:58;16.07;;;13.83;;
10469;SDS011;5282;47.052;15.458;2023-03-24T06:41:27;19.53;;;13.73;;
10469;SDS011;5282;47.052;15.458;2023-03-24T06:43:56;14.90;;;13.30;;
10469;SDS011;5282;47.052;15.458;2023-03-24T06:46:25;16.77;;;14.27;;
10469;SDS011;5282;47.052;15.458;2023-03-24T06:48:55;23.57;;;15.17;;
10469;SDS011;5282;47.052;15.458;2023-03-24T06:51:21;19.20;;;14.80;;
10469;SDS011;5282;47.052;15.458;2023-03-24T06:53:48;17.77;;;14.30;;
10469;SDS011;5282;47.052;15.458;2023-03-24T06:56:16;22.20;;;14.73;;
10469;SDS011;5282;47.052;15.458;2023-03-24T06:58:46;15.87;;;13.80;;
10469;SDS011;5282;47.052;15.458;2023-03-24T07:01:13;16.23;;;14.40;;
10469;SDS011;5282;47.052;15.458;2023-03-24T07:03:44;17.50;;;14.93;;
10469;SDS011;5282;47.052;15.458;2023-03-24T07:06:12;19.37;;;14.60;;
10469;SDS011;5282;47.052;15.458;2023-03-24T07:08:39;18.27;;;13.90;;
10469;SDS011;5282;47.052;15.458;2023-03-24T07:11:06;17.40;;;14.83;;
10469;SDS011;5282;47.052;15.458;2023-03-24T07:13:34;17.30;;;14.53;;
10469;SDS011;5282;47.052;15.458;2023-03-24T07:16:01;16.93;;;14.50;;
10469;SDS011;5282;47.052;15.458;2023-03-24T07:18:29;16.20;;;14.60;;
10469;SDS011;5282;47.052;15.458;2023-03-24T07:20:57;15.23;;;13.63;;
10469;SDS011;5282;47.052;15.458;2023-03-24T07:23:24;20.20;;;15.57;;
10469;SDS011;5282;47.052;15.458;2023-03-24T07:25:52;15.63;;;14.07;;
10469;SDS011;5282;47.052;15.458;2023-03-24T07:28:19;19.13;;;14.60;;
10469;SDS011;5282;47.052;15.458;2023-03-24T07:30:46;18.50;;;14.20;;
10469;SDS011;5282;47.052;15.458;2023-03-24T07:33:13;17.93;;;14.13;;
10469;SDS011;5282;47.052;15.458;2023-03-24T07:35:41;14.93;;;13.27;;
10469;SDS011;5282;47.052;15.458;2023-03-24T07:38:10;16.93;;;14.97;;
10469;SDS011;5282;47.052;15.458;2023-03-24T07:40:37;15.23;;;13.47;;
10469;SDS011;5282;47.052;15.458;2023-03-24T07:43:04;16.67;;;13.93;;
10469;SDS011;5282;47.052;15.458;2023-03-24T07:45:31;15.13;;;13.80;;
10469;SDS011;5282;47.052;15.458;2023-03-24T07:47:59;15.47;;;13.93;;
10469;SDS011;5282;47.052;15.458;2023-03-24T07:50:27;16.07;;;13.33;;
10469;SDS011;5282;47.052;15.458;2023-03-24T07:52:54;14.93;;;12.57;;
10469;SDS011;5282;47.052;15.458;2023-03-24T07:55:23;15.53;;;13.87;;
10469;SDS011;5282;47.052;15.458;2023-03-24T07:57:50;19.20;;;14.23;;
10469;SDS011;5282;47.052;15.458;2023-03-24T08:00:18;16.10;;;13.37;;
10469;SDS011;5282;47.052;15.458;2023-03-24T08:02:46;14.23;;;12.90;;
10469;SDS011;5282;47.052;15.458;2023-03-24T08:05:16;17.87;;;13.80;;
10469;SDS011;5282;47.052;15.458;2023-03-24T08:07:44;14.40;;;13.20;;
10469;SDS011;5282;47.052;15.458;2023-03-24T08:10:18;14.87;;;13.50;;
10469;SDS011;5282;47.052;15.458;2023-03-24T08:12:48;20.03;;;14.03;;
10469;SDS011;5282;47.052;15.458;2023-03-24T08:15:16;19.23;;;14.27;;
10469;SDS011;5282;47.052;15.458;2023-03-24T08:17:43;21.07;;;14.77;;
10469;SDS011;5282;47.052;15.458;2023-03-24T08:20:11;16.53;;;14.93;;
10469;SDS011;5282;47.052;15.458;2023-03-24T08:22:39;17.60;;;14.40;;
10469;SDS011;5282;47.052;15.458;2023-03-24T08:25:07;19.40;;;15.30;;
10469;SDS011;5282;47.052;15.458;2023-03-24T08:27:35;16.63;;;14.97;;
10469;SDS011;5282;47.052;15.458;2023-03-24T08:30:04;18.90;;;15.00;;
10469;SDS011;5282;47.052;15.458;2023-03-24T08:32:33;15.60;;;14.20;;
10469;SDS011;5282;47.052;15.458;2023-03-24T08:35:00;16.43;;;14.67;;
10469;SDS011;5282;47.052;15.458;2023-03-24T08:37:31;20.27;;;13.97;;
10469;SDS011;5282;47.052;15.458;2023-03-24T08:39:59;17.30;;;13.00;;
10469;SDS011;5282;47.052;15.458;2023-03-24T08:42:36;14.93;;;13.73;;
10469;SDS011;5282;47.052;15.458;2023-03-24T08:45:05;16.13;;;14.83;;
10469;SDS011;5282;47.052;15.458;2023-03-24T08:47:34;16.73;;;14.33;;
10469;SDS011;5282;47.052;15.458;2023-03-24T08:50:01;15.80;;;14.17;;
10469;SDS011;5282;47.052;15.458;2023-03-24T08:52:29;17.37;;;15.70;;
10469;SDS011;5282;47.052;15.458;2023-03-24T08:54:56;15.97;;;14.57;;
10469;SDS011;5282;47.052;15.458;2023-03-24T08:57:23;16.40;;;14.70;;
10469;SDS011;5282;47.052;15.458;2023-03-24T08:59:50;19.67;;;14.77;;
10469;SDS011;5282;47.052;15.458;2023-03-24T09:02:18;14.97;;;13.63;;
10469;SDS011;5282;47.052;15.458;2023-03-24T09:04:45;15.97;;;14.30;;
10469;SDS011;5282;47.052;15.458;2023-03-24T09:07:14;15.90;;;14.30;;
10469;SDS011;5282;47.052;15.458;2023-03-24T09:09:41;16.57;;;13.53;;
10469;SDS011;5282;47.052;15.458;2023-03-24T09:12:08;15.90;;;14.27;;
10469;SDS011;5282;47.052;15.458;2023-03-24T09:14:35;14.60;;;13.20;;
10469;SDS011;5282;47.052;15.458;2023-03-24T09:17:02;14.37;;;13.17;;
10469;SDS011;5282;47.052;15.458;2023-03-24T09:19:30;14.83;;;13.33;;
10469;SDS011;5282;47.052;15.458;2023-03-24T09:21:58;13.93;;;12.63;;
10469;SDS011;5282;47.052;15.458;2023-03-24T09:24:28;16.03;;;12.20;;
10469;SDS011;5282;47.052;15.458;2023-03-24T09:26:55;12.97;;;11.60;;
10469;SDS011;5282;47.052;15.458;2023-03-24T09:29:22;13.13;;;11.77;;
10469;SDS011;5282;47.052;15.458;2023-03-24T09:31:49;14.17;;;10.70;;
10469;SDS011;5282;47.052;15.458;2023-03-24T09:34:18;10.87;;;9.97;;
10469;SDS011;5282;47.052;15.458;2023-03-24T09:36:46;12.20;;;11.30;;
10469;SDS011;5282;47.052;15.458;2023-03-24T09:39:13;11.57;;;10.67;;
10469;SDS011;5282;47.052;15.458;2023-03-24T09:41:41;11.93;;;10.93;;
10469;SDS011;5282;47.052;15.458;2023-03-24T09:44:12;11.87;;;10.77;;
10469;SDS011;5282;47.052;15.458;2023-03-24T09:46:49;11.40;;;10.60;;
10469;SDS011;5282;47.052;15.458;2023-03-24T09:49:20;11.67;;;10.60;;
10469;SDS011;5282;47.052;15.458;2023-03-24T09:51:52;11.13;;;9.53;;
10469;SDS011;5282;47.052;15.458;2023-03-24T09:54:25;11.37;;;10.30;;
10469;SDS011;5282;47.052;15.458;2023-03-24T09:56:57;10.80;;;9.90;;
10469;SDS011;5282;47.052;15.458;2023-03-24T09:59:28;10.83;;;9.83;;
10469;SDS011;5282;47.052;15.458;2023-03-24T10:02:00;11.23;;;10.20;;
10469;SDS011;5282;47.052;15.458;2023-03-24T10:04:28;10.77;;;9.97;;
10469;SDS011;5282;47.052;15.458;2023-03-24T10:06:59;11.77;;;10.77;;
10469;SDS011;5282;47.052;15.458;2023-03-24T10:09:33;10.67;;;9.80;;
10469;SDS011;5282;47.052;15.458;2023-03-24T10:12:09;10.57;;;9.87;;
10469;SDS011;5282;47.052;15.458;2023-03-24T10:14:48;11.17;;;10.33;;
10469;SDS011;5282;47.052;15.458;2023-03-24T10:17:26;12.97;;;9.87;;
10469;SDS011;5282;47.052;15.458;2023-03-24T10:20:02;11.00;;;10.07;;
10469;SDS011;5282;47.052;15.458;2023-03-24T10:22:38;11.30;;;9.87;;
10469;SDS011;5282;47.052;15.458;2023-03-24T10:25:13;11.73;;;10.60;;
10469;SDS011;5282;47.052;15.458;2023-03-24T10:27:48;13.40;;;10.83;;
10469;SDS011;5282;47.052;15.458;2023-03-24T10:30:19;11.60;;;10.43;;
10469;SDS011;5282;47.052;15.458;2023-03-24T10:32:49;11.83;;;10.80;;
10469;SDS011;5282;47.052;15.458;2023-03-24T10:35:17;12.40;;;10.93;;
10469;SDS011;5282;47.052;15.458;2023-03-24T10:37:49;11.83;;;10.77;;
10469;SDS011;5282;47.052;15.458;2023-03-24T10:40:17;11.30;;;10.50;;
10469;SDS011;5282;47.052;15.458;2023-03-24T10:42:46;11.83;;;10.83;;
10469;SDS011;5282;47.052;15.458;2023-03-24T10:45:18;10.40;;;9.50;;
10469;SDS011;5282;47.052;15.458;2023-03-24T10:47:51;10.73;;;9.07;;
10469;SDS011;5282;47.052;15.458;2023-03-24T10:50:22;10.97;;;10.00;;
10469;SDS011;5282;47.052;15.458;2023-03-24T10:52:51;11.07;;;10.27;;
10469;SDS011;5282;47.052;15.458;2023-03-24T10:55:20;11.03;;;10.30;;
10469;SDS011;5282;47.052;15.458;2023-03-24T10:57:49;11.23;;;10.33;;
10469;SDS011;5282;47.052;15.458;2023-03-24T11:00:21;11.20;;;10.13;;
10469;SDS011;5282;47.052;15.458;2023-03-24T11:02:53;10.73;;;9.20;;
10469;SDS011;5282;47.052;15.458;2023-03-24T11:05:25;10.53;;;9.67;;
10469;SDS011;5282;47.052;15.458;2023-03-24T11:07:58;10.63;;;9.73;;
10469;SDS011;5282;47.052;15.458;2023-03-24T11:10:37;10.40;;;9.43;;
10469;SDS011;5282;47.052;15.458;2023-03-24T11:13:13;13.17;;;9.73;;
10469;SDS011;5282;47.052;15.458;2023-03-24T11:15:52;10.20;;;9.13;;
10469;SDS011;5282;47.052;15.458;2023-03-24T11:18:20;9.63;;;9.03;;
10469;SDS011;5282;47.052;15.458;2023-03-24T11:20:50;9.70;;;8.90;;
10469;SDS011;5282;47.052;15.458;2023-03-24T11:23:25;10.90;;;9.10;;
10469;SDS011;5282;47.052;15.458;2023-03-24T11:26:01;10.03;;;9.20;;
10469;SDS011;5282;47.052;15.458;2023-03-24T11:28:34;10.03;;;9.13;;
10469;SDS011;5282;47.052;15.458;2023-03-24T11:31:05;9.07;;;8.47;;
10469;SDS011;5282;47.052;15.458;2023-03-24T11:33:39;10.50;;;9.33;;
10469;SDS011;5282;47.052;15.458;2023-03-24T11:39:12;9.17;;;8.47;;
10469;SDS011;5282;47.052;15.458;2023-03-24T11:41:43;8.83;;;8.23;;
10469;SDS011;5282;47.052;15.458;2023-03-24T11:44:18;9.50;;;8.60;;
10469;SDS011;5282;47.052;15.458;2023-03-24T11:46:47;9.90;;;8.13;;
10469;SDS011;5282;47.052;15.458;2023-03-24T11:49:18;9.10;;;8.30;;
10469;SDS011;5282;47.052;15.458;2023-03-24T11:51:50;9.33;;;8.63;;
10469;SDS011;5282;47.052;15.458;2023-03-24T11:54:22;8.97;;;8.20;;
10469;SDS011;5282;47.052;15.458;2023-03-24T11:56:55;11.60;;;8.03;;
10469;SDS011;5282;47.052;15.458;2023-03-24T11:59:26;10.17;;;9.47;;
10469;SDS011;5282;47.052;15.458;2023-03-24T12:02:00;9.60;;;8.60;;
10469;SDS011;5282;47.052;15.458;2023-03-24T12:04:40;8.90;;;8.20;;
10469;SDS011;5282;47.052;15.458;2023-03-24T12:10:19;8.53;;;7.93;;
10469;SDS011;5282;47.052;15.458;2023-03-24T12:12:54;8.33;;;7.70;;
10469;SDS011;5282;47.052;15.458;2023-03-24T12:15:36;9.00;;;8.23;;
10469;SDS011;5282;47.052;15.458;2023-03-24T12:18:24;9.37;;;8.47;;
10469;SDS011;5282;47.052;15.458;2023-03-24T12:21:15;8.77;;;8.17;;
10469;SDS011;5282;47.052;15.458;2023-03-24T12:23:53;8.70;;;7.90;;
10469;SDS011;5282;47.052;15.458;2023-03-24T12:26:26;8.23;;;7.67;;
10469;SDS011;5282;47.052;15.458;2023-03-24T12:32:15;8.87;;;7.80;;
10469;SDS011;5282;47.052;15.458;2023-03-24T12:38:07;7.93;;;7.30;;
10469;SDS011;5282;47.052;15.458;2023-03-24T12:40:55;8.00;;;7.33;;
10469;SDS011;5282;47.052;15.458;2023-03-24T12:43:36;8.50;;;7.80;;
10469;SDS011;5282;47.052;15.458;2023-03-24T12:46:28;7.93;;;7.17;;
10469;SDS011;5282;47.052;15.458;2023-03-24T12:49:10;8.17;;;7.60;;
10469;SDS011;5282;47.052;15.458;2023-03-24T12:51:59;8.17;;;7.57;;
10469;SDS011;5282;47.052;15.458;2023-03-24T12:54:43;8.70;;;7.90;;
10469;SDS011;5282;47.052;15.458;2023-03-24T12:57:17;7.17;;;6.67;;
10469;SDS011;5282;47.052;15.458;2023-03-24T12:59:50;8.13;;;7.23;;
10469;SDS011;5282;47.052;15.458;2023-03-24T13:02:25;7.40;;;6.90;;
10469;SDS011;5282;47.052;15.458;2023-03-24T13:04:56;8.00;;;7.50;;
10469;SDS011;5282;47.052;15.458;2023-03-24T13:07:29;9.07;;;7.30;;
10469;SDS011;5282;47.052;15.458;2023-03-24T13:10:03;7.33;;;7.03;;
10469;SDS011;5282;47.052;15.458;2023-03-24T13:12:39;7.17;;;6.80;;
10469;SDS011;5282;47.052;15.458;2023-03-24T13:15:14;6.93;;;6.33;;
10469;SDS011;5282;47.052;15.458;2023-03-24T13:17:44;6.83;;;6.37;;
10469;SDS011;5282;47.052;15.458;2023-03-24T13:20:21;6.63;;;6.10;;
10469;SDS011;5282;47.052;15.458;2023-03-24T13:22:51;6.70;;;6.00;;
10469;SDS011;5282;47.052;15.458;2023-03-24T13:25:21;6.67;;;6.17;;
10469;SDS011;5282;47.052;15.458;2023-03-24T13:27:56;7.40;;;6.70;;
10469;SDS011;5282;47.052;15.458;2023-03-24T13:30:28;7.17;;;6.67;;
10469;SDS011;5282;47.052;15.458;2023-03-24T13:33:00;7.27;;;6.67;;
10469;SDS011;5282;47.052;15.458;2023-03-24T13:35:45;6.63;;;6.23;;
10469;SDS011;5282;47.052;15.458;2023-03-24T13:38:25;8.53;;;6.87;;
10469;SDS011;5282;47.052;15.458;2023-03-24T13:40:59;7.20;;;6.63;;
10469;SDS011;5282;47.052;15.458;2023-03-24T13:43:29;7.83;;;6.80;;
10469;SDS011;5282;47.052;15.458;2023-03-24T13:46:00;6.77;;;6.27;;
10469;SDS011;5282;47.052;15.458;2023-03-24T13:48:34;7.70;;;6.90;;
10469;SDS011;5282;47.052;15.458;2023-03-24T13:51:03;8.13;;;7.27;;
10469;SDS011;5282;47.052;15.458;2023-03-24T13:53:41;7.60;;;6.93;;
10469;SDS011;5282;47.052;15.458;2023-03-24T13:56:11;7.30;;;6.90;;
10469;SDS011;5282;47.052;15.458;2023-03-24T13:58:48;7.50;;;7.00;;
10469;SDS011;5282;47.052;15.458;2023-03-24T14:01:37;7.90;;;7.20;;
10469;SDS011;5282;47.052;15.458;2023-03-24T14:04:26;7.63;;;7.13;;
10469;SDS011;5282;47.052;15.458;2023-03-24T14:06:54;7.10;;;6.70;;
10469;SDS011;5282;47.052;15.458;2023-03-24T14:09:22;7.07;;;6.67;;
10469;SDS011;5282;47.052;15.458;2023-03-24T14:12:06;7.33;;;6.63;;
10469;SDS011;5282;47.052;15.458;2023-03-24T14:17:40;8.10;;;7.37;;
10469;SDS011;5282;47.052;15.458;2023-03-24T14:20:10;8.33;;;7.10;;
10469;SDS011;5282;47.052;15.458;2023-03-24T14:22:39;7.73;;;7.03;;
10469;SDS011;5282;47.052;15.458;2023-03-24T14:25:18;7.57;;;7.07;;
10469;SDS011;5282;47.052;15.458;2023-03-24T14:27:49;7.57;;;6.83;;
10469;SDS011;5282;47.052;15.458;2023-03-24T14:30:18;7.27;;;6.77;;
10469;SDS011;5282;47.052;15.458;2023-03-24T14:32:48;7.90;;;7.43;;
10469;SDS011;5282;47.052;15.458;2023-03-24T14:35:19;8.33;;;7.73;;
10469;SDS011;5282;47.052;15.458;2023-03-24T14:37:51;7.23;;;6.60;;
10469;SDS011;5282;47.052;15.458;2023-03-24T14:40:24;7.40;;;6.80;;
10469;SDS011;5282;47.052;15.458;2023-03-24T14:42:54;7.47;;;7.00;;
10469;SDS011;5282;47.052;15.458;2023-03-24T14:45:37;7.33;;;6.70;;
10469;SDS011;5282;47.052;15.458;2023-03-24T14:48:15;7.40;;;6.90;;
10469;SDS011;5282;47.052;15.458;2023-03-24T14:50:51;13.53;;;9.60;;
10469;SDS011;5282;47.052;15.458;2023-03-24T14:53:19;6.93;;;6.40;;
10469;SDS011;5282;47.052;15.458;2023-03-24T14:55:48;7.60;;;6.90;;
10469;SDS011;5282;47.052;15.458;2023-03-24T14:58:19;7.17;;;6.40;;
10469;SDS011;5282;47.052;15.458;2023-03-24T15:00:49;7.37;;;6.77;;
10469;SDS011;5282;47.052;15.458;2023-03-24T15:03:24;6.63;;;6.13;;
10469;SDS011;5282;47.052;15.458;2023-03-24T15:06:02;6.33;;;6.03;;
10469;SDS011;5282;47.052;15.458;2023-03-24T15:08:36;7.70;;;7.00;;
10469;SDS011;5282;47.052;15.458;2023-03-24T15:11:04;6.80;;;6.40;;
10469;SDS011;5282;47.052;15.458;2023-03-24T15:13:34;7.70;;;6.70;;
10469;SDS011;5282;47.052;15.458;2023-03-24T15:16:04;8.03;;;7.10;;
10469;SDS011;5282;47.052;15.458;2023-03-24T15:18:44;8.00;;;7.27;;
10469;SDS011;5282;47.052;15.458;2023-03-24T15:21:14;8.27;;;7.33;;